Time;durP1;ratioP1;P1;durP2;ratioP2;P2;SDS_P1;SDS_P2;PMS_P1;PMS_P2;Temp;Humidity;BMP_temperature;BMP_pressure;BME280_temperature;BME280_humidity;BME280_pressure;Samples;Min_cycle;Max_cycle;Signal;HPM_P1;HPM_P2
2021/01/12 00:01:39;;;;;;;24.73;17.43;;;4.00;70.90;;;;;;5080912;28;20351;-54
2021/01/12 00:04:05;;;;;;;26.80;18.77;;;4.00;70.20;;;;;;5075957;28;20105;-56
2021/01/12 00:06:31;;;;;;;27.77;17.37;;;4.00;72.20;;;;;;5076136;28;20490;-53
2021/01/12 00:08:56;;;;;;;29.23;18.77;;;4.10;71.40;;;;;;5072607;28;20036;-55
2021/01/12 00:11:22;;;;;;;25.70;17.47;;;4.00;71.80;;;;;;5080623;28;20493;-54
2021/01/12 00:13:48;;;;;;;27.60;18.00;;;4.00;72.00;;;;;;5077879;28;20036;-55
2021/01/12 00:16:17;;;;;;;25.33;17.47;;;4.00;72.30;;;;;;5082766;28;20461;-56
2021/01/12 00:18:42;;;;;;;25.57;18.17;;;4.00;72.00;;;;;;5081310;28;20043;-56
2021/01/12 00:21:08;;;;;;;30.03;19.07;;;4.00;71.60;;;;;;5075512;28;20043;-57
2021/01/12 00:23:34;;;;;;;28.03;18.73;;;4.00;71.30;;;;;;5078265;28;20087;-54
2021/01/12 00:25:59;;;;;;;29.67;18.90;;;4.00;71.40;;;;;;5072152;28;20052;-55
2021/01/12 00:28:25;;;;;;;30.03;19.10;;;4.00;71.40;;;;;;5061231;28;20114;-55
2021/01/12 00:30:51;;;;;;;26.93;18.30;;;4.00;71.20;;;;;;5070607;28;20047;-52
2021/01/12 00:33:16;;;;;;;34.23;19.83;;;4.00;71.90;;;;;;5078068;28;20537;-53
2021/01/12 00:35:42;;;;;;;29.00;19.67;;;3.90;71.00;;;;;;5076274;28;20461;-55
2021/01/12 00:38:07;;;;;;;29.97;19.40;;;3.90;71.50;;;;;;5078360;28;20055;-55
2021/01/12 00:40:33;;;;;;;30.33;20.67;;;3.90;71.80;;;;;;5074009;28;20531;-56
2021/01/12 00:42:59;;;;;;;29.67;20.20;;;3.90;71.60;;;;;;5078466;28;20036;-54
2021/01/12 00:45:24;;;;;;;37.97;21.93;;;3.90;71.90;;;;;;5070130;28;20047;-51
2021/01/12 00:47:50;;;;;;;32.27;21.90;;;3.80;71.30;;;;;;5078034;28;20032;-56
2021/01/12 00:50:15;;;;;;;35.03;22.63;;;3.80;71.90;;;;;;5076180;28;20039;-55
2021/01/12 00:52:41;;;;;;;36.17;22.13;;;3.80;71.90;;;;;;5079389;28;20081;-52
2021/01/12 00:55:07;;;;;;;33.60;22.57;;;3.80;71.90;;;;;;5075626;28;20036;-52
2021/01/12 00:57:33;;;;;;;32.03;22.00;;;3.90;71.80;;;;;;5072160;28;20041;-54
2021/01/12 00:59:58;;;;;;;33.27;23.27;;;3.80;72.40;;;;;;5076187;28;20040;-56
2021/01/12 01:02:24;;;;;;;33.97;22.77;;;3.80;71.60;;;;;;5075839;28;20042;-55
2021/01/12 01:04:49;;;;;;;32.87;21.80;;;3.80;72.60;;;;;;5075816;28;20032;-56
2021/01/12 01:07:16;;;;;;;33.67;23.37;;;3.70;71.90;;;;;;5068862;28;20454;-56
2021/01/12 01:09:41;;;;;;;34.33;22.80;;;3.70;71.90;;;;;;5077405;28;20131;-54
2021/01/12 01:12:07;;;;;;;43.70;24.60;;;3.70;71.40;;;;;;5074969;28;20123;-52
2021/01/12 01:14:32;;;;;;;34.53;24.57;;;3.70;71.10;;;;;;5078996;28;20101;-53
2021/01/12 01:16:58;;;;;;;31.00;21.93;;;3.70;72.30;;;;;;5075633;28;20052;-55
2021/01/12 01:19:24;;;;;;;39.33;22.90;;;3.70;72.00;;;;;;5079504;28;20051;-55
2021/01/12 01:21:49;;;;;;;32.40;22.57;;;3.70;71.60;;;;;;5067634;28;20032;-55
2021/01/12 01:24:15;;;;;;;33.90;23.10;;;3.60;71.60;;;;;;5077565;28;20055;-55
2021/01/12 01:26:40;;;;;;;34.77;22.17;;;3.60;71.30;;;;;;5075560;28;20698;-54
2021/01/12 01:29:06;;;;;;;38.33;23.50;;;3.60;72.10;;;;;;5079971;28;20040;-55
2021/01/12 01:31:37;;;;;;;34.70;22.73;;;3.60;71.80;;;;;;5077057;28;20089;-54
2021/01/12 01:34:03;;;;;;;32.53;22.80;;;3.70;71.70;;;;;;5072833;28;20044;-54
2021/01/12 01:36:29;;;;;;;33.97;23.03;;;3.70;71.50;;;;;;5079735;28;20189;-55
2021/01/12 01:38:54;;;;;;;32.10;22.03;;;3.70;71.20;;;;;;5073626;28;20448;-55
2021/01/12 01:41:20;;;;;;;32.23;21.20;;;3.70;71.50;;;;;;5077084;28;20063;-54
2021/01/12 01:43:46;;;;;;;30.10;20.33;;;3.70;71.00;;;;;;5075900;28;20035;-54
2021/01/12 01:46:12;;;;;;;34.97;23.00;;;3.70;70.80;;;;;;5074050;28;20493;-52
2021/01/12 01:48:37;;;;;;;32.63;23.03;;;3.70;70.90;;;;;;5073458;28;20465;-55
2021/01/12 01:51:05;;;;;;;32.70;21.80;;;3.70;71.00;;;;;;5076356;28;20043;-57
2021/01/12 01:53:36;;;;;;;31.40;22.23;;;3.70;70.80;;;;;;5075625;28;20552;-55
2021/01/12 01:56:04;;;;;;;29.23;20.47;;;3.70;70.10;;;;;;5074381;28;20031;-56
2021/01/12 01:58:30;;;;;;;28.93;20.03;;;3.70;70.40;;;;;;5068122;28;20387;-54
2021/01/12 02:00:56;;;;;;;28.07;19.60;;;3.70;70.70;;;;;;5077143;28;20135;-53
2021/01/12 02:03:37;;;;;;;29.30;19.87;;;3.70;69.70;;;;;;5074905;28;20032;-52
2021/01/12 02:06:08;;;;;;;32.23;21.47;;;3.70;69.20;;;;;;5074357;28;20039;-52
2021/01/12 02:08:51;;;;;;;31.60;21.27;;;3.70;71.10;;;;;;5075173;28;20055;-52
2021/01/12 02:11:19;;;;;;;31.67;22.10;;;3.70;71.50;;;;;;5050371;28;20671;-54
2021/01/12 02:13:44;;;;;;;32.93;22.47;;;3.70;72.10;;;;;;5058191;28;20105;-54
2021/01/12 02:16:11;;;;;;;32.47;22.70;;;3.70;71.70;;;;;;5074408;28;20494;-54
2021/01/12 02:18:38;;;;;;;33.07;23.30;;;3.60;72.10;;;;;;5077634;28;20047;-55
2021/01/12 02:21:04;;;;;;;38.03;25.30;;;3.60;73.30;;;;;;5078721;28;20028;-53
2021/01/12 02:23:52;;;;;;;39.50;25.83;;;3.70;74.40;;;;;;5074763;28;20059;-55
2021/01/12 02:26:17;;;;;;;37.53;25.10;;;3.70;74.40;;;;;;5041284;28;20528;-51
2021/01/12 02:28:43;;;;;;;38.37;24.47;;;3.70;74.40;;;;;;5076334;28;20044;-55
2021/01/12 02:31:09;;;;;;;39.10;25.50;;;3.60;74.40;;;;;;5068906;28;20077;-57
2021/01/12 02:33:38;;;;;;;36.20;25.57;;;3.60;74.90;;;;;;5077892;28;20131;-56
2021/01/12 02:36:06;;;;;;;37.63;25.60;;;3.60;75.10;;;;;;5071562;28;20504;-56
2021/01/12 02:38:34;;;;;;;38.50;24.77;;;3.60;75.20;;;;;;5077091;28;20201;-55
2021/01/12 02:41:16;;;;;;;40.77;26.93;;;3.60;75.00;;;;;;5073225;28;20056;-56
2021/01/12 02:43:43;;;;;;;39.90;25.90;;;3.50;76.20;;;;;;5075041;28;20077;-55
2021/01/12 02:46:15;;;;;;;37.63;26.00;;;3.50;75.60;;;;;;5073050;28;20032;-58
2021/01/12 02:48:40;;;;;;;39.50;26.30;;;3.40;76.00;;;;;;5077479;28;20033;-56
2021/01/12 02:51:06;;;;;;;40.70;26.27;;;3.40;75.50;;;;;;5073705;28;20036;-57
2021/01/12 02:53:32;;;;;;;37.90;24.27;;;3.30;75.70;;;;;;5075864;28;20035;-55
2021/01/12 02:55:57;;;;;;;38.80;25.50;;;3.30;75.70;;;;;;5074464;28;20047;-55
2021/01/12 02:58:23;;;;;;;39.63;26.00;;;3.40;76.10;;;;;;5078760;28;20044;-53
2021/01/12 03:00:49;;;;;;;37.37;24.80;;;3.30;76.30;;;;;;5071370;28;20048;-55
2021/01/12 03:03:14;;;;;;;39.70;26.03;;;3.30;76.10;;;;;;5062643;28;20029;-55
2021/01/12 03:05:40;;;;;;;38.57;25.13;;;3.30;76.20;;;;;;5079911;28;20032;-54
2021/01/12 03:08:06;;;;;;;38.93;25.30;;;3.20;76.20;;;;;;5065030;28;20167;-55
2021/01/12 03:10:32;;;;;;;38.67;25.60;;;3.20;76.00;;;;;;5081344;28;20045;-57
2021/01/12 03:12:57;;;;;;;47.70;28.73;;;3.20;75.40;;;;;;5076230;28;20044;-57
2021/01/12 03:15:23;;;;;;;38.90;26.73;;;3.20;75.10;;;;;;5080219;28;20508;-53
2021/01/12 03:17:48;;;;;;;40.80;27.33;;;3.20;76.30;;;;;;5071684;28;20052;-56
2021/01/12 03:20:14;;;;;;;42.77;27.60;;;3.20;76.40;;;;;;5079976;28;20032;-56
2021/01/12 03:22:41;;;;;;;39.03;26.33;;;3.20;75.80;;;;;;5080064;28;20036;-56
2021/01/12 03:25:08;;;;;;;38.40;26.27;;;3.20;76.10;;;;;;5077949;28;20040;-56
2021/01/12 03:27:35;;;;;;;39.40;26.70;;;3.20;76.30;;;;;;5075752;28;20044;-54
2021/01/12 03:30:02;;;;;;;40.13;26.50;;;3.30;76.70;;;;;;5076786;28;20036;-55
2021/01/12 03:32:28;;;;;;;36.90;26.33;;;3.20;76.20;;;;;;5076342;28;20036;-56
2021/01/12 03:34:53;;;;;;;34.90;25.23;;;3.20;76.30;;;;;;5077784;28;20052;-54
2021/01/12 03:37:19;;;;;;;41.10;25.90;;;3.20;76.90;;;;;;5072722;28;20056;-56
2021/01/12 03:39:44;;;;;;;36.73;26.07;;;3.30;76.70;;;;;;5077692;28;20075;-51
2021/01/12 03:42:10;;;;;;;38.10;24.10;;;3.30;76.60;;;;;;5078092;28;20042;-55
2021/01/12 03:44:36;;;;;;;36.23;25.57;;;3.30;76.70;;;;;;5080423;28;20047;-56
2021/01/12 03:47:01;;;;;;;32.77;23.87;;;3.30;76.80;;;;;;5073064;28;20075;-53
2021/01/12 03:49:27;;;;;;;37.60;23.70;;;3.30;77.20;;;;;;5084541;28;22678;-56
2021/01/12 03:51:53;;;;;;;35.23;25.47;;;3.30;76.80;;;;;;5081840;28;20053;-55
2021/01/12 03:54:19;;;;;;;31.87;23.40;;;3.10;76.50;;;;;;5059064;28;20093;-55
2021/01/12 03:56:44;;;;;;;36.93;24.17;;;3.20;77.10;;;;;;5074470;28;20036;-55
2021/01/12 03:59:10;;;;;;;35.40;24.60;;;3.20;77.20;;;;;;5071498;28;20074;-55
2021/01/12 04:01:41;;;;;;;34.97;24.00;;;3.30;77.20;;;;;;5076276;28;20052;-55
2021/01/12 04:04:07;;;;;;;36.53;23.70;;;3.30;77.10;;;;;;5072132;28;20089;-54
2021/01/12 04:06:33;;;;;;;36.90;24.90;;;3.20;77.10;;;;;;5079712;28;20036;-53
2021/01/12 04:08:58;;;;;;;35.70;26.00;;;3.20;76.60;;;;;;5079948;28;20094;-52
2021/01/12 04:11:24;;;;;;;37.80;25.87;;;3.10;76.30;;;;;;5076955;28;20105;-52
2021/01/12 04:13:50;;;;;;;38.13;27.27;;;3.10;75.90;;;;;;5079327;28;20512;-55
2021/01/12 04:16:15;;;;;;;38.00;27.40;;;3.00;76.10;;;;;;5080834;28;20452;-55
2021/01/12 04:18:41;;;;;;;35.13;25.47;;;3.00;75.90;;;;;;5076123;28;20068;-53
2021/01/12 04:21:06;;;;;;;37.23;26.50;;;3.00;76.30;;;;;;5076873;28;20036;-52
2021/01/12 04:23:32;;;;;;;35.83;25.57;;;3.00;76.00;;;;;;5075785;28;20056;-55
2021/01/12 04:25:58;;;;;;;38.10;24.97;;;3.00;75.20;;;;;;5081151;28;20382;-56
2021/01/12 04:28:23;;;;;;;36.70;25.90;;;3.00;75.40;;;;;;5076290;28;20095;-53
2021/01/12 04:30:49;;;;;;;39.70;26.07;;;3.00;75.00;;;;;;5059714;28;20116;-55
2021/01/12 04:33:15;;;;;;;36.03;25.60;;;3.00;75.00;;;;;;5080822;28;20043;-54
2021/01/12 04:35:40;;;;;;;36.53;24.13;;;2.90;74.60;;;;;;5071457;28;20433;-58
2021/01/12 04:38:06;;;;;;;32.97;22.83;;;3.00;74.70;;;;;;5079566;28;20123;-53
2021/01/12 04:40:32;;;;;;;41.27;24.33;;;3.10;74.20;;;;;;5070938;28;20099;-55
2021/01/12 04:42:58;;;;;;;37.07;24.80;;;3.10;74.30;;;;;;5076489;28;20036;-53
2021/01/12 04:45:25;;;;;;;35.83;23.03;;;3.00;74.00;;;;;;5079522;28;20104;-55
2021/01/12 04:47:51;;;;;;;32.70;23.10;;;3.00;74.80;;;;;;5078525;28;20036;-54
2021/01/12 04:50:16;;;;;;;34.13;21.57;;;3.00;74.60;;;;;;5075834;28;20040;-54
2021/01/12 04:52:50;;;;;;;33.17;22.90;;;3.00;74.30;;;;;;5077462;28;20480;-52
2021/01/12 04:55:17;;;;;;;33.30;21.87;;;3.00;74.00;;;;;;5072408;28;20028;-53
2021/01/12 04:57:44;;;;;;;36.40;22.53;;;3.00;74.00;;;;;;5075695;28;20274;-50
2021/01/12 05:00:24;;;;;;;31.30;21.97;;;3.00;73.60;;;;;;5079347;28;20086;-53
2021/01/12 05:03:01;;;;;;;30.23;22.13;;;3.00;74.00;;;;;;5050915;28;20040;-55
2021/01/12 05:05:29;;;;;;;32.93;20.17;;;3.00;73.40;;;;;;5070686;28;20063;-51
2021/01/12 05:07:59;;;;;;;31.53;21.33;;;3.00;73.20;;;;;;5075871;28;20049;-52
2021/01/12 05:10:25;;;;;;;31.77;21.93;;;3.00;73.80;;;;;;5073958;28;20041;-53
2021/01/12 05:12:52;;;;;;;36.30;23.30;;;3.00;73.50;;;;;;5079105;28;20431;-53
2021/01/12 05:15:19;;;;;;;36.47;23.83;;;3.10;73.40;;;;;;5074566;28;20044;-52
2021/01/12 05:17:48;;;;;;;32.97;23.70;;;3.10;73.60;;;;;;5075684;28;20060;-54
2021/01/12 05:20:24;;;;;;;37.47;23.27;;;3.10;73.60;;;;;;5077013;28;20052;-56
2021/01/12 05:23:08;;;;;;;37.23;23.97;;;3.00;74.40;;;;;;5071888;28;20032;-56
2021/01/12 05:25:39;;;;;;;38.00;26.07;;;3.10;74.20;;;;;;5078067;28;20036;-55
2021/01/12 05:28:09;;;;;;;37.30;25.83;;;3.10;73.90;;;;;;5058588;28;20036;-54
2021/01/12 05:30:35;;;;;;;44.10;26.87;;;3.00;74.50;;;;;;5080360;28;20036;-55
2021/01/12 05:33:02;;;;;;;35.83;24.97;;;3.10;74.50;;;;;;5072892;28;20036;-56
2021/01/12 05:35:32;;;;;;;36.27;24.77;;;3.10;74.50;;;;;;5077161;28;20036;-54
2021/01/12 05:38:04;;;;;;;36.70;24.40;;;3.10;73.80;;;;;;5074144;28;20091;-56
2021/01/12 05:40:36;;;;;;;36.47;26.40;;;3.10;74.10;;;;;;5078690;28;20048;-56
2021/01/12 05:43:09;;;;;;;35.40;25.40;;;3.10;75.00;;;;;;5071383;28;20047;-55
2021/01/12 05:45:36;;;;;;;36.40;25.37;;;3.10;74.40;;;;;;5082271;28;20067;-54
2021/01/12 05:48:03;;;;;;;34.90;23.20;;;3.10;74.70;;;;;;5072743;28;20040;-54
2021/01/12 05:50:32;;;;;;;36.80;23.97;;;3.10;74.50;;;;;;5076148;28;20490;-56
2021/01/12 05:53:15;;;;;;;37.33;24.47;;;3.20;74.40;;;;;;5073219;28;20036;-56
2021/01/12 05:55:43;;;;;;;35.53;24.60;;;3.20;74.50;;;;;;5075163;28;20127;-59
2021/01/12 05:58:30;;;;;;;34.20;22.70;;;3.20;74.10;;;;;;5074708;28;20063;-56
2021/01/12 06:01:01;;;;;;;34.20;22.37;;;3.20;74.10;;;;;;5050536;28;20481;-53
2021/01/12 06:03:30;;;;;;;35.03;22.57;;;3.10;73.60;;;;;;5073984;28;20040;-54
2021/01/12 06:05:56;;;;;;;32.03;21.60;;;3.20;73.70;;;;;;5081280;28;20375;-53
2021/01/12 06:08:22;;;;;;;30.67;21.67;;;3.10;73.40;;;;;;5075742;28;20032;-54
2021/01/12 06:10:48;;;;;;;26.50;20.10;;;3.00;73.10;;;;;;5077930;28;20389;-53
2021/01/12 06:13:18;;;;;;;30.97;21.00;;;3.00;72.80;;;;;;5069327;28;20039;-53
2021/01/12 06:15:48;;;;;;;30.97;20.90;;;3.00;73.10;;;;;;5083084;28;20039;-53
2021/01/12 06:18:18;;;;;;;30.93;20.40;;;3.00;73.70;;;;;;5069868;28;20056;-55
2021/01/12 06:20:55;;;;;;;31.27;20.13;;;3.00;73.10;;;;;;5077880;28;20480;-54
2021/01/12 06:23:29;;;;;;;32.43;21.57;;;2.90;73.70;;;;;;5073226;28;20048;-53
2021/01/12 06:25:55;;;;;;;29.47;20.00;;;3.00;73.40;;;;;;5072306;28;20127;-53
2021/01/12 06:28:21;;;;;;;30.07;20.77;;;2.90;72.70;;;;;;5076866;28;20047;-54
2021/01/12 06:30:47;;;;;;;30.10;20.70;;;2.90;73.80;;;;;;5079903;28;20382;-54
2021/01/12 06:33:14;;;;;;;30.10;20.37;;;2.90;73.70;;;;;;5077925;28;20114;-55
2021/01/12 06:35:41;;;;;;;26.60;20.57;;;2.90;73.60;;;;;;5078711;28;20520;-52
2021/01/12 06:44:58;;;;;;;27.93;19.77;;;2.90;72.80;;;;;;5010355;28;20106;-55
2021/01/12 06:47:28;;;;;;;30.23;20.20;;;2.80;73.10;;;;;;5045037;28;20394;-55
2021/01/12 06:50:11;;;;;;;28.53;18.60;;;2.80;72.50;;;;;;5040961;28;20503;-53
2021/01/12 06:52:44;;;;;;;28.33;19.60;;;2.70;73.10;;;;;;5046163;28;20045;-55
2021/01/12 06:55:11;;;;;;;28.23;19.63;;;2.80;73.10;;;;;;5036666;28;20086;-52
2021/01/12 06:57:37;;;;;;;29.67;20.03;;;3.00;73.20;;;;;;5038793;28;20045;-54
2021/01/12 07:00:08;;;;;;;28.83;20.00;;;3.10;73.50;;;;;;5042153;28;20040;-55
2021/01/12 07:02:34;;;;;;;27.80;19.93;;;3.10;72.90;;;;;;5043746;28;20033;-55
2021/01/12 07:05:05;;;;;;;28.20;19.57;;;3.10;72.80;;;;;;5032414;28;20132;-54
2021/01/12 07:07:50;;;;;;;30.97;19.23;;;3.10;72.80;;;;;;5041535;28;20438;-56
2021/01/12 07:10:17;;;;;;;31.50;18.73;;;3.10;72.30;;;;;;5037601;28;20056;-53
2021/01/12 07:12:47;;;;;;;26.70;18.33;;;3.00;73.00;;;;;;5040188;28;20041;-53
2021/01/12 07:15:18;;;;;;;34.37;18.37;;;3.00;73.00;;;;;;5038594;28;20063;-57
2021/01/12 07:17:44;;;;;;;26.53;18.37;;;3.10;73.10;;;;;;5044185;28;20437;-56
2021/01/12 07:20:12;;;;;;;25.70;18.23;;;3.10;72.70;;;;;;5043541;28;20033;-56
2021/01/12 07:22:41;;;;;;;27.13;17.53;;;3.20;72.90;;;;;;5029533;28;20498;-56
2021/01/12 07:25:09;;;;;;;30.57;17.70;;;3.20;72.00;;;;;;5042735;28;20055;-55
2021/01/12 07:27:34;;;;;;;24.53;18.00;;;3.20;72.50;;;;;;5037615;28;20116;-56
2021/01/12 07:30:08;;;;;;;26.27;17.87;;;3.20;71.90;;;;;;5040084;28;20495;-53
2021/01/12 07:32:39;;;;;;;23.27;17.37;;;3.30;72.10;;;;;;5037205;28;20065;-53
2021/01/12 07:35:10;;;;;;;24.87;16.70;;;3.20;70.90;;;;;;5044072;28;20533;-53
2021/01/12 07:37:40;;;;;;;24.97;16.47;;;3.20;71.70;;;;;;5033603;28;20072;-53
2021/01/12 07:40:09;;;;;;;22.53;16.00;;;3.30;72.70;;;;;;5045530;28;20071;-56
2021/01/12 07:42:45;;;;;;;25.40;17.33;;;3.30;72.20;;;;;;5037940;28;20041;-55
2021/01/12 07:45:11;;;;;;;22.97;15.63;;;3.40;72.60;;;;;;5076123;28;20048;-55
2021/01/12 07:47:37;;;;;;;26.23;16.93;;;3.40;72.30;;;;;;5073117;28;20036;-52
2021/01/12 07:50:03;;;;;;;27.90;17.03;;;3.40;72.10;;;;;;5079914;28;20358;-57
2021/01/12 07:52:29;;;;;;;24.30;15.90;;;3.40;71.70;;;;;;5078265;28;20436;-55
2021/01/12 07:54:55;;;;;;;25.37;16.17;;;3.30;72.10;;;;;;5085604;28;20038;-54
2021/01/12 07:57:22;;;;;;;22.07;15.23;;;3.30;72.00;;;;;;5077242;28;20462;-55
2021/01/12 07:59:48;;;;;;;25.00;15.13;;;3.20;71.60;;;;;;5064618;28;20040;-56
2021/01/12 08:02:16;;;;;;;21.60;15.53;;;3.30;72.80;;;;;;5074317;28;20032;-54
2021/01/12 08:04:41;;;;;;;21.47;13.93;;;3.30;73.00;;;;;;5077869;28;20505;-54
2021/01/12 08:07:07;;;;;;;22.37;15.77;;;3.30;72.40;;;;;;5081738;28;20020;-55
2021/01/12 08:09:33;;;;;;;23.07;14.07;;;3.30;73.10;;;;;;5080043;28;20051;-53
2021/01/12 08:12:05;;;;;;;19.23;14.17;;;3.40;73.20;;;;;;5073328;28;20025;-53
2021/01/12 08:14:31;;;;;;;21.83;14.83;;;3.50;73.00;;;;;;5063819;28;20437;-55
2021/01/12 08:16:58;;;;;;;21.27;15.47;;;3.50;73.40;;;;;;5082609;28;20051;-53
2021/01/12 08:19:25;;;;;;;23.00;15.30;;;3.60;73.30;;;;;;5079656;28;20036;-56
2021/01/12 08:21:52;;;;;;;19.83;14.03;;;3.70;73.00;;;;;;5075860;28;20717;-53
2021/01/12 08:24:25;;;;;;;19.47;14.27;;;3.60;73.00;;;;;;5073990;28;20068;-56
2021/01/12 08:26:52;;;;;;;22.10;14.23;;;3.60;73.00;;;;;;5080339;28;20041;-55
2021/01/12 08:29:26;;;;;;;18.03;13.23;;;3.60;73.20;;;;;;5072388;28;20097;-56
2021/01/12 08:32:01;;;;;;;21.77;15.43;;;3.50;73.00;;;;;;5063134;28;20077;-56
2021/01/12 08:34:30;;;;;;;19.70;14.47;;;3.70;72.90;;;;;;5071717;28;20032;-55
2021/01/12 08:37:02;;;;;;;22.77;13.40;;;3.80;72.90;;;;;;5078729;28;20055;-55
2021/01/12 08:39:31;;;;;;;19.27;14.73;;;3.70;73.10;;;;;;5070927;28;20044;-52
2021/01/12 08:41:57;;;;;;;22.97;16.07;;;3.80;73.10;;;;;;5077224;28;20028;-56
2021/01/12 08:44:26;;;;;;;19.57;14.43;;;3.90;73.10;;;;;;5075710;28;20428;-55
2021/01/12 08:46:53;;;;;;;17.63;14.07;;;3.80;72.20;;;;;;5078944;28;20038;-55
2021/01/12 08:49:29;;;;;;;18.47;14.57;;;4.10;72.60;;;;;;5073438;28;20052;-54
2021/01/12 08:51:56;;;;;;;20.03;13.70;;;4.00;72.90;;;;;;5075920;28;20094;-53
2021/01/12 08:54:22;;;;;;;19.73;13.63;;;4.00;72.40;;;;;;5072048;28;20397;-55
2021/01/12 08:57:03;;;;;;;23.53;14.67;;;4.00;72.60;;;;;;5078349;28;20123;-55
2021/01/12 08:59:30;;;;;;;18.20;12.93;;;3.90;71.40;;;;;;5071237;28;20134;-55
2021/01/12 09:01:57;;;;;;;22.77;13.87;;;3.90;71.80;;;;;;5078115;28;20039;-52
2021/01/12 09:04:24;;;;;;;20.97;12.90;;;3.90;71.60;;;;;;5075483;28;20131;-54
2021/01/12 09:07:06;;;;;;;18.47;13.27;;;4.00;71.40;;;;;;5078695;28;20490;-53
2021/01/12 09:09:33;;;;;;;17.03;12.17;;;4.20;70.50;;;;;;5076789;28;20478;-55
2021/01/12 09:12:00;;;;;;;19.13;11.77;;;4.00;69.90;;;;;;5078130;28;20123;-54
2021/01/12 09:14:47;;;;;;;17.80;11.37;;;4.00;69.40;;;;;;5080299;28;20362;-54
2021/01/12 09:17:18;;;;;;;18.87;12.27;;;4.10;68.60;;;;;;5070774;28;20047;-55
2021/01/12 09:19:49;;;;;;;20.00;12.50;;;4.10;69.00;;;;;;5078554;28;20040;-56
2021/01/12 09:22:17;;;;;;;14.53;10.87;;;4.20;69.00;;;;;;5077866;28;20078;-55
2021/01/12 09:24:54;;;;;;;15.90;11.13;;;4.10;68.80;;;;;;5076784;28;20037;-56
2021/01/12 09:27:21;;;;;;;15.83;10.33;;;4.30;68.50;;;;;;5073835;28;20036;-56
2021/01/12 09:29:47;;;;;;;14.80;9.97;;;4.00;67.10;;;;;;5073986;28;20032;-56
2021/01/12 09:32:27;;;;;;;15.20;10.43;;;4.10;67.40;;;;;;5067535;28;20059;-55
2021/01/12 09:34:53;;;;;;;14.90;10.97;;;4.00;68.00;;;;;;5076291;28;20043;-56
2021/01/12 09:37:19;;;;;;;15.10;10.37;;;3.90;67.50;;;;;;5070038;28;20067;-56
2021/01/12 09:39:53;;;;;;;16.13;10.97;;;4.00;66.80;;;;;;5079835;28;20052;-56
2021/01/12 09:42:24;;;;;;;14.57;10.83;;;4.00;67.90;;;;;;5060802;28;20383;-55
2021/01/12 09:44:51;;;;;;;17.67;10.40;;;3.90;67.40;;;;;;5072160;28;20553;-56
2021/01/12 09:47:17;;;;;;;16.30;10.60;;;4.00;67.90;;;;;;5071095;28;20048;-56
2021/01/12 09:49:43;;;;;;;16.73;10.93;;;4.10;68.20;;;;;;5080052;28;20568;-54
2021/01/12 09:52:08;;;;;;;20.13;11.77;;;4.00;67.30;;;;;;5064115;28;20063;-54
2021/01/12 09:54:34;;;;;;;18.10;11.90;;;4.00;67.10;;;;;;5076350;28;20044;-54
2021/01/12 09:57:00;;;;;;;20.27;11.93;;;3.90;66.10;;;;;;5056586;28;20041;-56
2021/01/12 09:59:26;;;;;;;15.13;10.90;;;4.10;66.40;;;;;;5068600;28;20036;-55
2021/01/12 10:01:58;;;;;;;17.13;11.03;;;4.10;67.80;;;;;;5074024;28;22449;-55
2021/01/12 10:04:23;;;;;;;16.57;11.27;;;4.30;68.00;;;;;;5074785;28;20058;-55
2021/01/12 10:06:59;;;;;;;18.50;10.80;;;4.30;67.70;;;;;;5066434;28;20044;-55
2021/01/12 10:09:27;;;;;;;16.93;10.53;;;4.50;66.10;;;;;;5073577;28;20547;-54
2021/01/12 10:11:53;;;;;;;17.97;10.03;;;4.70;65.80;;;;;;5079494;28;20115;-53
2021/01/12 10:14:20;;;;;;;17.47;10.37;;;4.70;64.10;;;;;;5073007;28;20036;-55
2021/01/12 10:16:47;;;;;;;16.87;10.73;;;5.20;65.00;;;;;;5074324;28;20101;-56
2021/01/12 10:19:13;;;;;;;14.27;9.87;;;5.20;64.50;;;;;;5067860;28;20046;-55
2021/01/12 10:21:39;;;;;;;13.73;10.23;;;5.10;63.50;;;;;;5079731;28;20044;-53
2021/01/12 10:24:05;;;;;;;15.07;10.10;;;4.80;65.20;;;;;;5072851;28;20397;-54
2021/01/12 10:26:32;;;;;;;19.67;11.03;;;4.80;65.40;;;;;;5061664;28;20115;-54
2021/01/12 10:28:58;;;;;;;13.60;9.63;;;5.10;65.80;;;;;;5071563;28;20452;-56
2021/01/12 10:31:24;;;;;;;15.17;10.23;;;5.10;65.10;;;;;;5050964;28;20055;-56
2021/01/12 10:33:51;;;;;;;15.33;10.47;;;5.00;65.50;;;;;;5071537;28;20089;-56
2021/01/12 10:36:18;;;;;;;15.10;9.83;;;5.10;64.30;;;;;;5076730;28;20031;-55
2021/01/12 10:38:45;;;;;;;15.80;10.87;;;5.10;64.20;;;;;;5059238;28;20041;-55
2021/01/12 10:41:11;;;;;;;16.27;10.67;;;5.10;64.50;;;;;;5077856;28;20028;-56
2021/01/12 10:43:37;;;;;;;17.97;10.77;;;4.90;65.60;;;;;;5074681;28;20554;-52
2021/01/12 10:46:04;;;;;;;15.43;9.63;;;5.00;65.00;;;;;;5079394;28;20489;-55
2021/01/12 10:48:30;;;;;;;14.50;9.80;;;4.80;64.00;;;;;;5071755;28;20043;-52
2021/01/12 10:50:56;;;;;;;17.73;10.17;;;4.90;66.20;;;;;;5075404;28;20044;-54
2021/01/12 10:53:21;;;;;;;18.97;11.20;;;4.80;66.40;;;;;;5075357;28;20040;-54
2021/01/12 10:55:47;;;;;;;15.20;11.50;;;4.70;65.20;;;;;;5075240;28;20511;-55
2021/01/12 10:58:14;;;;;;;15.23;10.87;;;4.90;65.90;;;;;;5074394;28;20048;-54
2021/01/12 11:00:40;;;;;;;17.80;10.97;;;4.80;65.90;;;;;;5074012;28;20128;-54
2021/01/12 11:03:07;;;;;;;15.93;11.03;;;4.80;66.70;;;;;;5060758;28;20120;-55
2021/01/12 11:05:35;;;;;;;13.93;10.63;;;4.80;66.10;;;;;;5073083;28;20044;-55
2021/01/12 11:08:03;;;;;;;13.53;9.80;;;4.70;66.40;;;;;;5077354;28;20529;-54
2021/01/12 11:10:29;;;;;;;17.87;10.80;;;4.80;66.30;;;;;;5070704;28;20065;-56
2021/01/12 11:12:59;;;;;;;15.93;11.07;;;4.80;64.80;;;;;;5074844;28;20529;-56
2021/01/12 11:15:29;;;;;;;17.37;12.10;;;4.90;65.40;;;;;;5071335;28;20168;-56
2021/01/12 11:17:54;;;;;;;18.57;12.67;;;5.00;64.90;;;;;;5084542;28;20040;-56
2021/01/12 11:20:21;;;;;;;23.13;12.30;;;5.00;65.80;;;;;;5074289;28;20039;-56
2021/01/12 11:22:46;;;;;;;19.57;12.27;;;5.20;65.20;;;;;;5078839;28;20031;-57
2021/01/12 11:25:13;;;;;;;16.90;12.27;;;5.10;64.50;;;;;;5077746;28;20036;-59
2021/01/12 11:27:40;;;;;;;19.17;13.27;;;5.20;63.80;;;;;;5075241;28;20036;-56
2021/01/12 11:30:08;;;;;;;20.77;12.53;;;5.20;65.00;;;;;;5078237;28;20102;-55
2021/01/12 11:32:34;;;;;;;18.13;12.30;;;5.30;64.10;;;;;;5082189;28;20035;-56
2021/01/12 11:35:01;;;;;;;19.47;13.00;;;5.20;63.80;;;;;;5081591;28;20677;-56
2021/01/12 11:37:29;;;;;;;20.30;13.30;;;5.20;64.60;;;;;;5072933;28;20044;-55
2021/01/12 11:39:55;;;;;;;21.63;13.20;;;5.20;64.00;;;;;;5075763;28;20036;-55
2021/01/12 11:42:21;;;;;;;19.90;12.40;;;5.20;64.80;;;;;;5070867;28;20044;-52
2021/01/12 11:44:47;;;;;;;22.50;13.87;;;5.10;64.80;;;;;;5078753;28;20413;-54
2021/01/12 11:47:13;;;;;;;20.53;12.93;;;5.00;63.00;;;;;;5072190;28;20036;-55
2021/01/12 11:49:39;;;;;;;20.83;14.57;;;5.10;64.60;;;;;;5074136;28;20555;-54
2021/01/12 11:52:06;;;;;;;19.33;13.13;;;5.20;64.60;;;;;;5070412;28;20044;-56
2021/01/12 11:54:32;;;;;;;20.80;13.10;;;5.20;65.90;;;;;;5076643;28;20040;-55
2021/01/12 11:56:59;;;;;;;17.07;12.53;;;5.20;64.60;;;;;;5072571;28;20048;-57
2021/01/12 11:59:26;;;;;;;19.37;12.97;;;5.20;64.30;;;;;;5075736;28;20111;-56
2021/01/12 12:01:53;;;;;;;21.13;13.37;;;5.20;64.90;;;;;;5074904;28;20048;-56
2021/01/12 12:04:20;;;;;;;23.87;15.17;;;5.20;63.70;;;;;;5075301;28;20043;-54
2021/01/12 12:07:04;;;;;;;24.00;16.07;;;5.20;63.70;;;;;;5074752;28;20048;-56
2021/01/12 12:09:32;;;;;;;24.20;16.30;;;5.30;63.80;;;;;;5080360;28;20043;-54
2021/01/12 12:11:58;;;;;;;19.00;13.93;;;5.40;64.30;;;;;;5061481;28;20072;-55
2021/01/12 12:14:24;;;;;;;23.13;15.77;;;5.30;63.10;;;;;;5084167;28;20078;-54
2021/01/12 12:16:50;;;;;;;23.13;16.47;;;5.40;62.70;;;;;;5075184;28;20587;-55
2021/01/12 12:19:18;;;;;;;27.43;15.43;;;5.30;60.20;;;;;;5079584;28;20052;-52
2021/01/12 12:21:57;;;;;;;22.87;15.87;;;5.20;61.00;;;;;;5078535;28;20052;-54
2021/01/12 12:24:25;;;;;;;26.00;15.73;;;5.40;61.70;;;;;;5077352;28;20943;-54
2021/01/12 12:26:52;;;;;;;23.50;16.53;;;5.40;62.50;;;;;;5080173;28;20068;-56
2021/01/12 12:29:18;;;;;;;23.83;16.43;;;5.40;62.10;;;;;;5074652;28;20397;-55
2021/01/12 12:31:44;;;;;;;24.93;16.60;;;5.50;63.30;;;;;;5079789;28;20032;-56
2021/01/12 12:34:10;;;;;;;30.27;17.47;;;5.60;63.40;;;;;;5076511;28;20536;-55
2021/01/12 12:36:37;;;;;;;25.37;16.90;;;5.50;61.80;;;;;;5078490;28;20035;-55
2021/01/12 12:39:04;;;;;;;25.57;16.37;;;5.50;62.50;;;;;;5057938;28;20058;-55
2021/01/12 12:41:33;;;;;;;25.10;16.63;;;5.60;62.50;;;;;;5080715;28;20146;-56
2021/01/12 12:43:59;;;;;;;22.47;16.53;;;5.60;62.20;;;;;;5079177;28;20128;-57
2021/01/12 12:46:25;;;;;;;25.77;16.67;;;5.60;62.60;;;;;;5082346;28;20523;-56
2021/01/12 12:48:51;;;;;;;26.33;16.73;;;5.60;61.10;;;;;;5074050;28;20035;-56